Terminal Aerodrome Forecast
Issued by NWS

Home | Current Version | Previous Version | Text Only | Print | Product List | Glossary On
Versions: 1 2 3 4 5 6 7 8 9 10 11 12 13 14 15 16 17 18 19 20 21
000
FTUS42 KTAE 011526 AAB
TAFABY
TAF AMD
KABY 011526Z 0115/0212 VRB03KT P6SM BKN008
     FM011600 VRB03KT P6SM BKN015
     FM011700 VRB03KT P6SM SCT025 BKN250
     FM012000 09006KT 3SM TSRA BKN030CB
     FM020100 14003KT P6SM VCSH SCT030 BKN100
     FM020800 00000KT 3SM BR SCT005 BKN100=

USA.gov is the U.S. government's official web portal to all federal, state and local government web resources and services.